createdAt,value
2017-12-10T00:01:47.638Z,2.58
2017-12-10T00:04:15.374Z,2.30
2017-12-10T00:06:44.016Z,2.10
2017-12-10T00:09:11.766Z,2.22
2017-12-10T00:11:39.522Z,2.62
2017-12-10T00:14:07.273Z,1.98
2017-12-10T00:16:35.038Z,2.25
2017-12-10T00:19:02.795Z,2.05
2017-12-10T00:21:30.707Z,1.75
2017-12-10T00:23:58.575Z,2.25
2017-12-10T00:26:26.442Z,2.20
2017-12-10T00:28:54.239Z,2.28
2017-12-10T00:31:22.006Z,2.80
2017-12-10T00:33:50.659Z,2.37
2017-12-10T00:36:18.526Z,2.45
2017-12-10T00:38:46.394Z,2.15
2017-12-10T00:41:14.271Z,2.62
2017-12-10T00:43:42.130Z,2.00
2017-12-10T00:46:09.914Z,2.72
2017-12-10T00:48:37.699Z,2.42
2017-12-10T00:51:06.238Z,2.08
2017-12-10T00:53:34.110Z,2.00
2017-12-10T00:56:01.979Z,2.62
2017-12-10T00:58:29.844Z,2.12
2017-12-10T01:00:57.711Z,3.05
2017-12-10T01:03:25.478Z,2.45
2017-12-10T01:05:53.347Z,2.75
2017-12-10T01:08:21.244Z,2.12
2017-12-10T01:10:49.813Z,3.22
2017-12-10T01:13:17.663Z,2.85
2017-12-10T01:15:45.530Z,2.30
2017-12-10T01:18:13.398Z,2.70
2017-12-10T01:20:41.264Z,2.30
2017-12-10T01:23:09.046Z,3.30
2017-12-10T01:25:36.829Z,3.22
2017-12-10T01:28:05.367Z,3.03
2017-12-10T01:30:33.246Z,2.70
2017-12-10T01:33:01.032Z,3.20
2017-12-10T01:35:28.801Z,2.62
2017-12-10T01:37:56.746Z,2.40
2017-12-10T01:40:24.615Z,2.50
2017-12-10T01:42:52.402Z,2.65
2017-12-10T01:45:20.347Z,2.92
2017-12-10T01:47:48.118Z,3.78
2017-12-10T01:50:15.980Z,2.92
2017-12-10T01:52:43.846Z,3.08
2017-12-10T01:55:11.621Z,3.03
2017-12-10T01:57:39.483Z,3.00
2017-12-10T02:00:07.349Z,3.33
2017-12-10T02:02:35.216Z,3.60
2017-12-10T02:05:02.992Z,2.80
2017-12-10T02:07:30.763Z,4.05
2017-12-10T02:09:58.713Z,3.67
2017-12-10T02:12:26.490Z,3.50
2017-12-10T02:14:54.273Z,3.30
2017-12-10T02:17:22.212Z,3.40
2017-12-10T02:19:50.009Z,3.78
2017-12-10T02:22:17.847Z,4.20
2017-12-10T02:24:45.713Z,3.12
2017-12-10T02:27:13.506Z,3.30
2017-12-10T02:29:41.447Z,4.18
2017-12-10T02:32:09.315Z,3.80
2017-12-10T02:34:37.182Z,3.42
2017-12-10T02:37:04.960Z,3.85
2017-12-10T02:39:32.814Z,3.65
2017-12-10T02:42:00.602Z,3.80
2017-12-10T02:44:28.381Z,4.05
2017-12-10T02:46:56.934Z,3.70
2017-12-10T02:49:24.718Z,3.58
2017-12-10T02:51:52.662Z,4.20
2017-12-10T02:54:20.530Z,3.58
2017-12-10T02:56:48.313Z,3.30
2017-12-10T02:59:16.093Z,3.72
2017-12-10T03:01:44.741Z,3.45
2017-12-10T03:04:12.613Z,3.45
2017-12-10T03:06:40.483Z,4.80
2017-12-10T03:09:08.349Z,3.42
2017-12-10T03:11:36.124Z,4.28
2017-12-10T03:14:04.086Z,4.22
2017-12-10T03:16:31.953Z,5.18
2017-12-10T03:18:59.821Z,3.85
2017-12-10T03:21:42.451Z,3.65
2017-12-10T03:24:10.456Z,4.22
2017-12-10T03:26:39.086Z,3.35
2017-12-10T03:29:06.885Z,4.00
2017-12-10T03:31:35.422Z,4.15
2017-12-10T03:34:03.208Z,4.40
2017-12-10T03:36:31.071Z,4.47
2017-12-10T03:38:58.857Z,4.25
2017-12-10T03:41:26.625Z,4.25
2017-12-10T03:43:54.567Z,3.50
2017-12-10T03:46:22.435Z,3.75
2017-12-10T03:48:50.303Z,4.05
2017-12-10T03:51:18.082Z,3.78
2017-12-10T03:53:45.934Z,4.28
2017-12-10T03:56:13.804Z,4.62
2017-12-10T03:58:41.671Z,4.75
2017-12-10T04:01:11.480Z,5.03
2017-12-10T04:03:39.249Z,4.72
2017-12-10T04:06:07.029Z,3.85
2017-12-10T04:08:34.878Z,5.32
2017-12-10T04:11:02.653Z,4.18
2017-12-10T04:13:30.426Z,4.35
2017-12-10T04:15:58.190Z,4.62
2017-12-10T04:18:25.961Z,4.28
2017-12-10T04:20:53.908Z,4.45
2017-12-10T04:23:21.775Z,5.12
2017-12-10T04:25:49.556Z,4.45
2017-12-10T04:28:17.323Z,4.62
2017-12-10T04:30:45.172Z,4.18
2017-12-10T04:33:12.949Z,4.72
2017-12-10T04:35:40.804Z,4.28
2017-12-10T04:38:08.671Z,4.00
2017-12-10T04:40:36.483Z,4.60
2017-12-10T04:43:05.018Z,4.85
2017-12-10T04:45:32.783Z,4.72
2017-12-10T04:48:00.578Z,4.32
2017-12-10T04:50:28.357Z,4.43
2017-12-10T04:52:56.901Z,4.15
2017-12-10T04:55:24.697Z,4.93
2017-12-10T04:57:53.356Z,5.15
2017-12-10T05:00:21.116Z,4.65
2017-12-10T05:02:48.901Z,4.45
2017-12-10T05:05:16.683Z,3.90
2017-12-10T05:07:45.332Z,4.53
2017-12-10T05:10:13.199Z,4.37
2017-12-10T05:12:41.066Z,4.15
2017-12-10T05:15:08.931Z,4.22
2017-12-10T05:17:36.801Z,5.37
2017-12-10T05:20:04.583Z,4.90
2017-12-10T05:22:32.435Z,3.85
2017-12-10T05:25:00.306Z,4.37
2017-12-10T05:27:28.069Z,4.35
2017-12-10T05:29:57.238Z,4.53
2017-12-10T05:32:25.245Z,3.90
2017-12-10T05:34:53.031Z,4.43
2017-12-10T05:37:21.582Z,4.12
2017-12-10T05:39:49.354Z,4.35
2017-12-10T05:42:17.117Z,4.07
2017-12-10T05:47:47.072Z,4.75
2017-12-10T05:50:14.838Z,3.90
2017-12-10T05:52:42.601Z,3.87
2017-12-10T05:55:10.445Z,4.43
2017-12-10T05:57:38.234Z,4.25
2017-12-10T06:00:08.341Z,4.25
2017-12-10T06:02:38.022Z,4.50
2017-12-10T06:05:38.755Z,3.60
2017-12-10T06:08:08.556Z,4.40
2017-12-10T06:10:38.969Z,4.07
2017-12-10T06:13:06.888Z,4.05
2017-12-10T06:15:34.755Z,3.42
2017-12-10T06:18:02.623Z,3.97
2017-12-10T06:20:30.494Z,3.60
2017-12-10T06:22:58.279Z,3.90
2017-12-10T06:25:26.090Z,4.05
2017-12-10T06:27:53.989Z,4.03
2017-12-10T06:30:21.857Z,3.80
2017-12-10T06:32:49.930Z,3.25
2017-12-10T06:35:17.730Z,3.12
2017-12-10T06:37:46.330Z,3.72
2017-12-10T06:40:14.853Z,3.00
2017-12-10T06:42:44.677Z,3.65
2017-12-10T06:45:12.477Z,3.50
2017-12-10T06:47:41.043Z,3.10
2017-12-10T06:50:09.100Z,2.55
2017-12-10T06:52:36.883Z,3.50
2017-12-10T06:55:04.689Z,2.80
2017-12-10T06:57:32.730Z,3.85
2017-12-10T07:00:01.345Z,2.70
2017-12-10T07:02:30.789Z,2.25
2017-12-10T07:04:58.591Z,3.12
2017-12-10T07:07:27.139Z,3.00
2017-12-10T07:09:54.922Z,3.17
2017-12-10T07:12:22.769Z,3.40
2017-12-10T07:14:50.637Z,3.53
2017-12-10T07:17:18.688Z,3.50
2017-12-10T07:19:46.576Z,2.80
2017-12-10T07:22:14.545Z,3.03
2017-12-10T07:24:42.413Z,3.30
2017-12-10T07:27:10.281Z,3.97
2017-12-10T07:29:38.250Z,3.08
2017-12-10T07:32:06.220Z,3.00
2017-12-10T07:34:34.098Z,2.85
2017-12-10T07:37:01.991Z,3.33
2017-12-10T07:39:30.640Z,3.33
2017-12-10T07:41:58.511Z,2.78
2017-12-10T07:44:26.376Z,2.62
2017-12-10T07:46:54.248Z,2.55
2017-12-10T07:49:22.111Z,3.08
2017-12-10T07:51:50.091Z,2.00
2017-12-10T07:54:17.951Z,2.33
2017-12-10T07:56:45.814Z,2.70
2017-12-10T07:59:13.681Z,2.20
2017-12-10T08:01:41.651Z,3.25
2017-12-10T08:04:09.520Z,3.62
2017-12-10T08:06:37.489Z,2.80
2017-12-10T08:09:05.356Z,2.50
2017-12-10T08:11:33.326Z,2.65
2017-12-10T08:14:01.196Z,3.42
2017-12-10T08:16:29.060Z,2.33
2017-12-10T08:18:56.927Z,2.67
2017-12-10T08:21:24.811Z,1.87
2017-12-10T08:23:52.764Z,2.25
2017-12-10T08:26:20.631Z,2.78
2017-12-10T08:28:48.504Z,2.33
2017-12-10T08:31:16.366Z,1.90
2017-12-10T08:33:44.234Z,2.22
2017-12-10T08:36:12.102Z,2.67
2017-12-10T08:38:39.968Z,1.70
2017-12-10T08:41:07.940Z,2.30
2017-12-10T08:43:36.367Z,2.30
2017-12-10T08:46:05.004Z,2.50
2017-12-10T08:48:32.914Z,2.30
2017-12-10T08:51:01.557Z,2.62
2017-12-10T08:53:29.586Z,1.90
2017-12-10T08:55:58.281Z,1.83
2017-12-10T08:58:26.184Z,2.15
2017-12-10T09:00:53.979Z,2.85
2017-12-10T09:03:21.918Z,2.15
2017-12-10T09:05:49.785Z,2.78
2017-12-10T09:08:17.652Z,2.00
2017-12-10T09:10:45.521Z,1.87
2017-12-10T09:13:13.491Z,1.85
2017-12-10T09:15:41.358Z,2.20
2017-12-10T09:18:09.224Z,1.90
2017-12-10T09:20:37.194Z,2.05
2017-12-10T09:23:05.164Z,1.87
2017-12-10T09:25:33.033Z,2.15
2017-12-10T09:28:01.002Z,2.10
2017-12-10T09:30:28.868Z,2.08
2017-12-10T09:32:56.736Z,1.52
2017-12-10T09:35:24.603Z,2.45
2017-12-10T09:37:52.572Z,1.73
2017-12-10T09:40:20.444Z,2.20
2017-12-10T09:42:48.820Z,2.10
2017-12-10T09:45:17.610Z,1.90
2017-12-10T09:47:45.476Z,2.15
2017-12-10T09:50:13.456Z,2.20
2017-12-10T09:52:41.688Z,1.90
2017-12-10T09:55:10.920Z,1.70
2017-12-10T09:57:38.788Z,2.00
2017-12-10T10:00:06.664Z,2.20
2017-12-10T10:02:34.524Z,2.60
2017-12-10T10:05:02.390Z,2.50
2017-12-10T10:07:30.258Z,2.05
2017-12-10T10:09:58.125Z,2.83
2017-12-10T10:12:25.991Z,2.90
2017-12-10T10:14:53.859Z,2.28
2017-12-10T10:17:21.726Z,2.33
2017-12-10T10:19:49.595Z,3.08
2017-12-10T10:22:17.461Z,2.42
2017-12-10T10:24:45.328Z,2.20
2017-12-10T10:27:13.196Z,2.72
2017-12-10T10:29:40.992Z,1.98
2017-12-10T10:32:09.647Z,2.80
2017-12-10T10:34:37.515Z,2.40
2017-12-10T10:37:05.382Z,2.15
2017-12-10T10:39:33.249Z,2.40
2017-12-10T10:42:01.117Z,2.50
2017-12-10T10:44:28.987Z,3.33
2017-12-10T10:46:56.851Z,2.28
2017-12-10T10:49:24.718Z,2.80
2017-12-10T10:51:52.586Z,2.53
2017-12-10T10:54:20.453Z,2.67
2017-12-10T10:56:48.320Z,2.70
2017-12-10T10:59:16.188Z,2.80
2017-12-10T11:01:44.055Z,3.37
2017-12-10T11:04:11.923Z,4.00
2017-12-10T11:06:39.791Z,3.92
2017-12-10T11:09:07.657Z,3.85
2017-12-10T11:11:35.526Z,3.30
2017-12-10T11:14:03.392Z,3.95
2017-12-10T11:16:31.361Z,4.68
2017-12-10T11:18:59.158Z,4.35
2017-12-10T11:21:27.812Z,3.80
2017-12-10T11:23:55.682Z,4.62
2017-12-10T11:26:23.547Z,5.40
2017-12-10T11:28:51.415Z,4.18
2017-12-10T11:31:19.284Z,3.85
2017-12-10T11:33:47.150Z,3.37
2017-12-10T11:36:15.017Z,4.32
2017-12-10T11:38:42.815Z,4.75
2017-12-10T11:41:11.365Z,4.00
2017-12-10T11:43:39.233Z,3.62
2017-12-10T11:46:07.100Z,2.67
2017-12-10T11:48:34.967Z,3.30
2017-12-10T11:51:02.759Z,3.55
2017-12-10T11:53:30.701Z,3.45
2017-12-10T11:55:58.570Z,3.12
2017-12-10T11:58:26.369Z,2.87
2017-12-10T12:00:55.026Z,4.53
2017-12-10T12:03:22.889Z,3.30
2017-12-10T12:05:50.858Z,3.90
2017-12-10T12:08:18.726Z,3.92
2017-12-10T12:10:46.592Z,3.50
2017-12-10T12:13:14.563Z,2.85
2017-12-10T12:15:42.484Z,3.53
2017-12-10T12:18:11.117Z,3.30
2017-12-10T12:20:38.903Z,3.72
2017-12-10T12:23:06.662Z,3.90
2017-12-10T12:25:34.619Z,3.50
2017-12-10T12:28:02.482Z,3.40
2017-12-10T12:30:30.455Z,3.15
2017-12-10T12:32:58.423Z,3.15
2017-12-10T12:35:26.291Z,4.95
2017-12-10T12:37:54.157Z,4.60
2017-12-10T12:40:22.127Z,3.62
2017-12-10T12:42:49.994Z,4.30
2017-12-10T12:45:17.861Z,4.60
2017-12-10T12:47:45.729Z,3.97
2017-12-10T12:50:13.596Z,4.30
2017-12-10T12:52:42.518Z,3.75
2017-12-10T12:55:11.181Z,3.55
2017-12-10T12:57:39.042Z,2.75
2017-12-10T13:00:06.908Z,3.83
2017-12-10T13:02:34.882Z,5.47
2017-12-10T13:05:02.746Z,4.93
2017-12-10T13:07:30.944Z,5.70
2017-12-10T13:09:58.890Z,4.57
2017-12-10T13:12:28.456Z,4.80
2017-12-10T13:14:57.695Z,3.53
2017-12-10T13:17:25.665Z,3.08
2017-12-10T13:19:53.532Z,3.30
2017-12-10T13:22:21.401Z,3.05
2017-12-10T13:24:49.267Z,3.37
2017-12-10T13:27:17.144Z,3.53
2017-12-10T13:29:45.106Z,3.00
2017-12-10T13:32:12.972Z,2.70
2017-12-10T13:34:40.840Z,4.00
2017-12-10T13:37:09.649Z,2.72
2017-12-10T13:39:37.599Z,3.10
2017-12-10T13:42:05.469Z,2.80
2017-12-10T13:44:33.440Z,2.92
2017-12-10T13:47:01.304Z,2.80
2017-12-10T13:49:29.172Z,3.10
2017-12-10T13:51:57.037Z,2.72
2017-12-10T13:54:25.046Z,3.00
2017-12-10T13:56:53.694Z,3.10
2017-12-10T13:59:21.561Z,3.08
2017-12-10T14:01:49.428Z,3.22
2017-12-10T14:04:17.296Z,3.37
2017-12-10T14:06:45.162Z,3.55
2017-12-10T14:09:13.030Z,3.20
2017-12-10T14:11:40.899Z,3.28
2017-12-10T14:14:08.765Z,3.58
2017-12-10T14:16:36.572Z,3.50
2017-12-10T14:19:05.218Z,2.83
2017-12-10T14:21:33.186Z,3.20
2017-12-10T14:24:01.058Z,3.60
2017-12-10T14:26:28.920Z,3.35
2017-12-10T14:28:56.803Z,3.50
2017-12-10T14:31:24.770Z,5.80
2017-12-10T14:33:52.556Z,4.72
2017-12-10T14:36:21.217Z,4.62
2017-12-10T14:38:49.077Z,4.25
2017-12-10T14:41:16.944Z,4.25
2017-12-10T14:43:44.811Z,4.20
2017-12-10T14:46:12.682Z,4.62
2017-12-10T14:48:40.546Z,4.07
2017-12-10T14:51:08.344Z,4.00
2017-12-10T14:53:36.996Z,4.95
2017-12-10T14:56:04.865Z,4.95
2017-12-10T14:58:32.731Z,4.15
2017-12-10T15:01:00.599Z,3.87
2017-12-10T15:03:28.443Z,4.00
2017-12-10T15:05:56.435Z,4.05
2017-12-10T15:08:25.715Z,4.05
2017-12-10T15:10:53.604Z,3.70
2017-12-10T15:13:21.676Z,3.65
2017-12-10T15:15:49.545Z,4.10
2017-12-10T15:18:17.514Z,3.80
2017-12-10T15:20:45.417Z,4.10
2017-12-10T15:23:14.066Z,3.95
2017-12-10T15:25:42.046Z,4.00
2017-12-10T15:28:10.007Z,3.95
2017-12-10T15:30:37.874Z,4.25
2017-12-10T15:33:05.848Z,4.30
2017-12-10T15:35:33.710Z,5.20
2017-12-10T15:38:01.886Z,4.55
2017-12-10T15:40:31.699Z,5.03
2017-12-10T15:42:59.667Z,5.10
2017-12-10T15:45:27.535Z,5.20
2017-12-10T15:47:55.402Z,4.62
2017-12-10T15:50:23.269Z,5.12
2017-12-10T15:52:51.136Z,5.00
2017-12-10T15:55:19.004Z,5.53
2017-12-10T15:57:46.873Z,5.90
2017-12-10T16:00:15.662Z,5.62
2017-12-10T16:02:43.531Z,6.25
2017-12-10T16:05:11.397Z,7.32
2017-12-10T16:07:39.262Z,6.25
2017-12-10T16:10:07.129Z,5.32
2017-12-10T16:12:34.998Z,6.90
2017-12-10T16:15:03.069Z,5.78
2017-12-10T16:17:30.937Z,6.30
2017-12-10T16:19:58.804Z,6.68
2017-12-10T16:22:26.674Z,4.93
2017-12-10T16:24:54.538Z,5.68
2017-12-10T16:27:22.406Z,6.03
2017-12-10T16:29:50.273Z,5.90
2017-12-10T16:32:18.171Z,6.32
2017-12-10T16:34:46.111Z,6.95
2017-12-10T16:37:13.977Z,6.57
2017-12-10T16:39:41.846Z,6.65
2017-12-10T16:42:09.717Z,8.13
2017-12-10T16:44:37.581Z,8.55
2017-12-10T16:47:05.447Z,8.32
2017-12-10T16:49:33.315Z,7.10
2017-12-10T16:52:01.182Z,7.32
2017-12-10T16:54:29.050Z,7.62
2017-12-10T16:56:56.916Z,7.05
2017-12-10T16:59:24.784Z,7.32
2017-12-10T17:01:52.651Z,6.93
2017-12-10T17:04:20.518Z,9.02
2017-12-10T17:06:48.386Z,7.82
2017-12-10T17:09:16.253Z,7.80
2017-12-10T17:11:44.120Z,7.87
2017-12-10T17:14:12.090Z,8.25
2017-12-10T17:16:39.990Z,7.60
2017-12-10T17:19:08.643Z,8.07
2017-12-10T17:21:36.511Z,7.57
2017-12-10T17:24:04.378Z,8.68
2017-12-10T17:26:32.246Z,6.95
2017-12-10T17:29:00.112Z,7.05
2017-12-10T17:31:27.980Z,7.20
2017-12-10T17:33:55.848Z,6.60
2017-12-10T17:36:23.715Z,7.22
2017-12-10T17:38:51.685Z,6.15
2017-12-10T17:41:19.656Z,6.43
2017-12-10T17:43:47.521Z,5.35
2017-12-10T17:46:15.389Z,5.75
2017-12-10T17:48:43.262Z,5.05
2017-12-10T17:51:11.124Z,6.35
2017-12-10T17:53:39.094Z,5.80
2017-12-10T17:56:06.961Z,4.65
2017-12-10T17:58:34.828Z,5.43
2017-12-10T18:01:02.797Z,6.75
2017-12-10T18:03:30.664Z,5.85
2017-12-10T18:05:58.533Z,5.40
2017-12-10T18:08:26.501Z,5.22
2017-12-10T18:10:54.371Z,5.72
2017-12-10T18:13:22.340Z,4.80
2017-12-10T18:15:50.213Z,4.75
2017-12-10T18:18:18.179Z,5.53
2017-12-10T18:20:46.043Z,4.47
2017-12-10T18:23:14.013Z,5.32
2017-12-10T18:25:41.986Z,4.90
2017-12-10T18:28:09.851Z,5.25
2017-12-10T18:30:37.722Z,4.15
2017-12-10T18:33:05.588Z,4.00
2017-12-10T18:35:33.452Z,5.32
2017-12-10T18:38:01.425Z,5.45
2017-12-10T18:40:29.289Z,4.82
2017-12-10T18:42:57.157Z,4.82
2017-12-10T18:45:25.023Z,4.95
2017-12-10T18:47:52.891Z,5.50
2017-12-10T18:50:20.758Z,4.97
2017-12-10T18:52:48.625Z,5.10
2017-12-10T18:55:16.495Z,4.57
2017-12-10T18:57:44.362Z,4.90
2017-12-10T19:00:12.330Z,3.97
2017-12-10T19:02:40.198Z,4.75
2017-12-10T19:05:08.070Z,3.80
2017-12-10T19:07:35.933Z,3.00
2017-12-10T19:10:03.905Z,3.80
2017-12-10T19:12:31.770Z,3.28
2017-12-10T19:14:59.741Z,2.80
2017-12-10T19:17:27.607Z,3.50
2017-12-10T19:19:55.474Z,3.03
2017-12-10T19:22:23.341Z,3.25
2017-12-10T19:24:51.210Z,2.90
2017-12-10T19:27:19.081Z,2.67
2017-12-10T19:29:47.048Z,2.30
2017-12-10T19:32:15.015Z,2.58
2017-12-10T19:34:42.883Z,2.60
2017-12-10T19:37:10.749Z,3.65
2017-12-10T19:39:38.624Z,2.65
2017-12-10T19:42:06.484Z,2.40
2017-12-10T19:44:34.454Z,2.25
2017-12-10T19:47:02.322Z,2.50
2017-12-10T19:49:30.189Z,2.12
2017-12-10T19:51:58.261Z,2.85
2017-12-10T19:54:26.230Z,2.35
2017-12-10T19:56:54.104Z,2.28
2017-12-10T19:59:22.069Z,2.62
2017-12-10T20:01:49.935Z,2.53
2017-12-10T20:04:17.905Z,2.80
2017-12-10T20:06:45.772Z,2.20
2017-12-10T20:09:13.639Z,2.92
2017-12-10T20:11:41.508Z,2.58
2017-12-10T20:14:09.476Z,2.45
2017-12-10T20:16:37.445Z,3.17
2017-12-10T20:19:05.416Z,2.95
2017-12-10T20:21:33.385Z,2.45
2017-12-10T20:24:01.253Z,2.35
2017-12-10T20:26:29.120Z,2.47
2017-12-10T20:31:31.000Z,2.70
2017-12-10T20:33:59.728Z,2.58
2017-12-10T20:36:28.368Z,2.75
2017-12-10T20:38:56.241Z,2.72
2017-12-10T20:41:24.107Z,2.70
2017-12-10T20:43:52.179Z,3.05
2017-12-10T20:46:20.047Z,2.97
2017-12-10T20:48:47.913Z,2.60
2017-12-10T20:51:15.885Z,3.30
2017-12-10T20:53:43.853Z,2.35
2017-12-10T20:56:11.724Z,3.47
2017-12-10T20:58:39.588Z,3.30
2017-12-10T21:01:07.456Z,2.67
2017-12-10T21:03:35.323Z,2.30
2017-12-10T21:06:03.294Z,3.20
2017-12-10T21:08:31.161Z,2.42
2017-12-10T21:10:59.130Z,3.00
2017-12-10T21:13:26.996Z,3.05
2017-12-10T21:15:54.863Z,2.97
2017-12-10T21:18:22.731Z,2.40
2017-12-10T21:20:50.701Z,2.20
2017-12-10T21:23:18.568Z,2.60
2017-12-10T21:25:46.537Z,1.85
2017-12-10T21:28:14.404Z,2.10
2017-12-10T21:30:42.373Z,2.00
2017-12-10T21:33:10.242Z,1.90
2017-12-10T21:35:38.109Z,1.90
2017-12-10T21:38:05.976Z,1.98
2017-12-10T21:40:33.844Z,2.40
2017-12-10T21:43:01.711Z,2.17
2017-12-10T21:45:29.582Z,2.47
2017-12-10T21:47:57.446Z,1.85
2017-12-10T21:50:25.415Z,2.08
2017-12-10T21:52:53.283Z,1.52
2017-12-10T21:55:21.151Z,2.00
2017-12-10T21:57:49.018Z,1.80
2017-12-10T22:00:18.420Z,2.35
2017-12-10T22:02:46.287Z,2.03
2017-12-10T22:05:14.974Z,2.20
2017-12-10T22:07:42.841Z,1.80
2017-12-10T22:10:10.710Z,1.87
2017-12-10T22:12:38.577Z,2.80
2017-12-10T22:15:06.546Z,2.33
2017-12-10T22:17:34.413Z,3.10
2017-12-10T22:20:02.283Z,2.22
2017-12-10T22:22:30.251Z,2.30
2017-12-10T22:24:58.118Z,2.85
2017-12-10T22:27:26.087Z,2.03
2017-12-10T22:29:53.955Z,1.95
2017-12-10T22:32:21.823Z,2.10
2017-12-10T22:34:49.689Z,2.42
2017-12-10T22:37:17.556Z,1.70
2017-12-10T22:39:45.424Z,1.85
2017-12-10T22:42:13.291Z,1.80
2017-12-10T22:44:41.162Z,1.10
2017-12-10T22:47:09.026Z,1.33
2017-12-10T22:49:36.893Z,1.20
2017-12-10T22:52:04.761Z,1.12
2017-12-10T22:54:32.627Z,1.62
2017-12-10T22:57:00.495Z,1.40
2017-12-10T22:59:28.370Z,1.00
2017-12-10T23:01:56.230Z,1.65
2017-12-10T23:04:24.098Z,1.50
2017-12-10T23:06:51.965Z,1.08
2017-12-10T23:09:19.834Z,1.85
2017-12-10T23:11:47.699Z,1.70
2017-12-10T23:14:15.567Z,1.60
2017-12-10T23:16:43.434Z,1.60
2017-12-10T23:19:11.300Z,2.25
2017-12-10T23:21:39.168Z,1.40
2017-12-10T23:24:07.036Z,1.90
2017-12-10T23:26:34.902Z,1.83
2017-12-10T23:29:02.770Z,1.48
2017-12-10T23:31:30.639Z,2.47
2017-12-10T23:33:58.505Z,1.80
2017-12-10T23:36:26.475Z,1.80
2017-12-10T23:38:54.342Z,2.03
2017-12-10T23:41:22.209Z,1.52
2017-12-10T23:43:50.076Z,1.58
2017-12-10T23:46:17.945Z,1.60
2017-12-10T23:48:45.811Z,1.50
2017-12-10T23:51:13.679Z,2.00
2017-12-10T23:53:41.546Z,2.42
2017-12-10T23:56:09.416Z,1.50
2017-12-10T23:58:37.282Z,2.03
